Time;durP1;ratioP1;P1;durP2;ratioP2;P2;SDS_P1;SDS_P2;PMS_P1;PMS_P2;Temp;Humidity;BMP_temperature;BMP_pressure;BME280_temperature;BME280_humidity;BME280_pressure;Samples;Min_cycle;Max_cycle;Signal;HPM_P1;HPM_P2
2023/01/30 00:01:24;;;;;;;21.25;3.67;;;;;;;;;;5033240;28;20071;-32
2023/01/30 00:03:51;;;;;;;19.55;3.25;;;;;;;;;;5033198;28;20022;-32
2023/01/30 00:06:18;;;;;;;24.00;3.83;;;;;;;;;;5032938;28;20017;-32
2023/01/30 00:08:46;;;;;;;21.30;4.10;;;;;;;;;;5033295;28;20038;-32
2023/01/30 00:11:13;;;;;;;26.73;3.90;;;;;;;;;;5033137;28;20556;-32
2023/01/30 00:13:41;;;;;;;25.58;4.32;;;;;;;;;;5032962;28;20076;-32
2023/01/30 00:16:11;;;;;;;16.30;3.50;;;;;;;;;;5032900;28;20049;-32
2023/01/30 00:18:39;;;;;;;24.25;4.20;;;;;;;;;;5032893;28;20027;-32
2023/01/30 00:21:07;;;;;;;20.58;3.80;;;;;;;;;;5032913;28;20108;-32
2023/01/30 00:23:35;;;;;;;22.27;3.55;;;;;;;;;;5032871;28;20056;-32
2023/01/30 00:26:02;;;;;;;23.33;3.53;;;;;;;;;;5031894;28;20041;-32
2023/01/30 00:28:29;;;;;;;21.60;3.65;;;;;;;;;;5032766;28;20384;-32
2023/01/30 00:30:56;;;;;;;21.23;4.10;;;;;;;;;;5032775;28;20017;-32
2023/01/30 00:33:24;;;;;;;27.35;4.35;;;;;;;;;;5032737;28;20057;-32
2023/01/30 00:35:51;;;;;;;26.00;4.68;;;;;;;;;;5032663;28;20543;-32
2023/01/30 00:38:19;;;;;;;28.58;4.05;;;;;;;;;;5032490;28;20407;-32
2023/01/30 00:40:47;;;;;;;26.05;4.10;;;;;;;;;;5032585;28;20109;-32
2023/01/30 00:48:46;;;;;;;30.65;4.45;;;;;;;;;;5032857;28;20506;-32
2023/01/30 00:51:13;;;;;;;28.40;4.15;;;;;;;;;;5032575;28;20537;-32
2023/01/30 00:53:40;;;;;;;23.33;4.20;;;;;;;;;;5032785;28;20061;-32
2023/01/30 00:56:07;;;;;;;26.25;4.47;;;;;;;;;;5032420;28;20506;-32
2023/01/30 00:58:34;;;;;;;23.42;4.63;;;;;;;;;;5032548;28;20064;-32
2023/01/30 01:01:01;;;;;;;29.67;4.22;;;;;;;;;;5032465;28;20065;-32
2023/01/30 01:03:28;;;;;;;22.35;4.00;;;;;;;;;;5032420;28;20033;-32
2023/01/30 01:05:55;;;;;;;22.48;4.68;;;;;;;;;;5032396;28;20041;-32
2023/01/30 01:08:22;;;;;;;19.63;3.88;;;;;;;;;;5032441;28;20056;-32
2023/01/30 01:10:49;;;;;;;27.30;4.65;;;;;;;;;;5032397;28;20025;-32
2023/01/30 01:13:16;;;;;;;24.67;4.30;;;;;;;;;;5032335;28;20041;-32
2023/01/30 01:15:43;;;;;;;21.65;3.63;;;;;;;;;;5032135;28;20030;-32
2023/01/30 01:18:10;;;;;;;15.88;4.13;;;;;;;;;;5032388;28;20017;-32
2023/01/30 01:20:36;;;;;;;26.17;4.72;;;;;;;;;;5032367;28;20021;-32
2023/01/30 01:23:03;;;;;;;25.50;4.18;;;;;;;;;;5032356;28;20068;-32
2023/01/30 01:25:30;;;;;;;17.20;3.70;;;;;;;;;;5032187;28;20022;-32
2023/01/30 01:27:57;;;;;;;15.20;3.80;;;;;;;;;;5032239;28;20475;-32
2023/01/30 01:30:24;;;;;;;21.95;4.03;;;;;;;;;;5032254;28;20021;-32
2023/01/30 01:32:51;;;;;;;14.63;4.03;;;;;;;;;;5032174;28;20488;-32
2023/01/30 01:35:18;;;;;;;18.98;4.03;;;;;;;;;;5031945;28;20029;-32
2023/01/30 01:37:46;;;;;;;14.90;3.65;;;;;;;;;;5031976;28;20065;-32
2023/01/30 01:43:03;;;;;;;16.02;3.85;;;;;;;;;;5032426;28;20040;-32
2023/01/30 01:45:30;;;;;;;19.42;3.50;;;;;;;;;;5031912;28;20083;-32
2023/01/30 01:47:57;;;;;;;20.70;3.63;;;;;;;;;;5032087;28;20400;-32
2023/01/30 01:50:31;;;;;;;24.27;3.30;;;;;;;;;;5031839;28;20419;-32
2023/01/30 01:52:59;;;;;;;19.48;3.97;;;;;;;;;;5033750;28;20038;-32
2023/01/30 01:55:27;;;;;;;15.25;3.30;;;;;;;;;;5035569;28;20075;-32
2023/01/30 01:57:57;;;;;;;18.90;3.70;;;;;;;;;;5035552;28;20052;-32
2023/01/30 02:00:24;;;;;;;22.88;3.78;;;;;;;;;;5035454;28;20030;-32
2023/01/30 02:02:54;;;;;;;18.95;3.67;;;;;;;;;;5035415;28;20028;-32
2023/01/30 02:05:22;;;;;;;14.95;3.35;;;;;;;;;;5035359;28;20059;-32
2023/01/30 02:07:51;;;;;;;13.88;3.30;;;;;;;;;;5035386;28;20539;-32
2023/01/30 02:10:33;;;;;;;21.58;4.20;;;;;;;;;;5035244;28;20030;-32
2023/01/30 02:12:59;;;;;;;22.27;3.90;;;;;;;;;;5035094;28;20038;-32
2023/01/30 02:15:26;;;;;;;12.77;3.63;;;;;;;;;;5035089;28;20018;-32
2023/01/30 02:17:53;;;;;;;16.50;3.08;;;;;;;;;;5035193;28;20033;-32
2023/01/30 02:20:39;;;;;;;16.10;3.40;;;;;;;;;;5035164;28;20100;-32
2023/01/30 02:23:15;;;;;;;17.80;3.28;;;;;;;;;;5035016;28;20564;-32
2023/01/30 02:25:42;;;;;;;19.10;3.63;;;;;;;;;;5034945;28;20044;-32
2023/01/30 02:28:11;;;;;;;17.42;3.03;;;;;;;;;;5035003;28;20075;-32
2023/01/30 02:30:41;;;;;;;17.52;3.35;;;;;;;;;;5034917;28;20052;-30
2023/01/30 02:33:17;;;;;;;19.40;3.30;;;;;;;;;;5034750;28;20496;-30
2023/01/30 02:35:44;;;;;;;17.08;3.35;;;;;;;;;;5034807;28;20071;-30
2023/01/30 02:38:37;;;;;;;15.70;2.92;;;;;;;;;;5034677;28;20507;-32
2023/01/30 02:41:19;;;;;;;12.77;3.05;;;;;;;;;;5030745;28;20042;-32
2023/01/30 02:43:45;;;;;;;;;;;;;;;;;;5034926;28;20034;-32
2023/01/30 02:46:16;;;;;;;12.30;3.13;;;;;;;;;;5034567;28;19909;-32
2023/01/30 02:49:05;;;;;;;9.73;2.70;;;;;;;;;;5034557;28;20025;-32
2023/01/30 02:51:35;;;;;;;11.40;3.10;;;;;;;;;;5034405;28;20026;-32
2023/01/30 02:54:02;;;;;;;21.38;3.50;;;;;;;;;;5034449;28;20029;-32
2023/01/30 02:56:29;;;;;;;14.80;2.97;;;;;;;;;;5034415;28;20529;-32
2023/01/30 02:59:01;;;;;;;13.63;3.05;;;;;;;;;;5034365;28;20492;-32
2023/01/30 03:01:28;;;;;;;15.15;3.00;;;;;;;;;;5034297;28;20029;-32
2023/01/30 03:04:17;;;;;;;14.40;2.90;;;;;;;;;;5033076;28;20075;-32
2023/01/30 03:07:06;;;;;;;18.80;2.80;;;;;;;;;;5034083;28;20045;-32
2023/01/30 03:09:48;;;;;;;16.15;2.90;;;;;;;;;;5017773;28;20538;-32
2023/01/30 03:12:26;;;;;;;16.58;2.92;;;;;;;;;;5034127;28;20117;-32
2023/01/30 03:15:19;;;;;;;9.05;2.53;;;;;;;;;;5034022;28;20032;-32
2023/01/30 03:17:47;;;;;;;9.52;2.30;;;;;;;;;;5029223;28;20175;-32
2023/01/30 03:20:15;;;;;;;18.08;2.60;;;;;;;;;;5034008;28;20444;-32
2023/01/30 03:22:42;;;;;;;13.20;2.70;;;;;;;;;;5016215;28;20064;-32
2023/01/30 03:25:10;;;;;;;15.82;2.90;;;;;;;;;;5033779;28;20029;-32
2023/01/30 03:27:37;;;;;;;13.73;2.75;;;;;;;;;;5033831;28;20021;-32
2023/01/30 03:30:04;;;;;;;8.07;2.45;;;;;;;;;;5033878;28;20025;-32
2023/01/30 03:32:31;;;;;;;10.00;2.88;;;;;;;;;;5033676;28;20045;-32
2023/01/30 03:34:58;;;;;;;8.95;2.58;;;;;;;;;;5033652;28;20038;-32
2023/01/30 03:37:25;;;;;;;10.20;2.20;;;;;;;;;;5033461;28;20052;-32
2023/01/30 03:39:53;;;;;;;12.95;2.90;;;;;;;;;;5033612;28;20041;-32
2023/01/30 03:42:20;;;;;;;14.32;2.95;;;;;;;;;;5033876;28;20027;-32
2023/01/30 03:44:47;;;;;;;10.05;2.67;;;;;;;;;;5033421;28;20056;-32
2023/01/30 03:47:13;;;;;;;10.63;2.50;;;;;;;;;;5033458;28;20104;-32
2023/01/30 03:49:40;;;;;;;11.60;2.33;;;;;;;;;;5033440;28;20033;-32
2023/01/30 03:52:07;;;;;;;11.75;2.40;;;;;;;;;;5015551;28;20396;-32
2023/01/30 03:54:34;;;;;;;10.15;2.42;;;;;;;;;;5015553;28;20072;-32
2023/01/30 03:57:01;;;;;;;7.07;2.17;;;;;;;;;;5033305;28;20495;-32
2023/01/30 03:59:28;;;;;;;21.00;3.05;;;;;;;;;;5033302;28;20021;-32
2023/01/30 04:01:56;;;;;;;14.73;2.92;;;;;;;;;;5033514;28;20033;-32
2023/01/30 04:04:23;;;;;;;7.75;2.30;;;;;;;;;;5033012;28;20041;-32
2023/01/30 04:06:50;;;;;;;10.60;2.50;;;;;;;;;;5033131;28;20022;-32
2023/01/30 04:09:17;;;;;;;9.52;2.78;;;;;;;;;;5033091;28;20021;-32
2023/01/30 04:11:44;;;;;;;15.93;3.40;;;;;;;;;;5033015;28;20442;-32
2023/01/30 04:14:11;;;;;;;9.05;2.20;;;;;;;;;;5032942;28;20034;-32
2023/01/30 04:16:38;;;;;;;13.43;2.05;;;;;;;;;;5032682;28;20022;-32
2023/01/30 04:19:05;;;;;;;8.63;2.55;;;;;;;;;;5032971;28;20491;-32
2023/01/30 04:21:32;;;;;;;8.50;2.22;;;;;;;;;;5032883;28;20026;-32
2023/01/30 04:23:59;;;;;;;9.30;2.30;;;;;;;;;;5032686;28;20031;-32
2023/01/30 04:26:26;;;;;;;9.27;2.25;;;;;;;;;;5032742;28;20396;-32
2023/01/30 04:28:53;;;;;;;9.15;2.33;;;;;;;;;;5032849;28;20025;-32
2023/01/30 04:31:20;;;;;;;5.43;1.90;;;;;;;;;;5032777;28;20029;-32
2023/01/30 04:33:47;;;;;;;8.85;2.10;;;;;;;;;;5032737;28;20033;-32
2023/01/30 04:36:14;;;;;;;8.35;2.28;;;;;;;;;;5032613;28;20038;-32
2023/01/30 04:38:41;;;;;;;8.57;1.90;;;;;;;;;;5032646;28;20028;-32
2023/01/30 04:41:07;;;;;;;4.25;1.80;;;;;;;;;;5032698;28;20028;-32
2023/01/30 04:43:34;;;;;;;6.97;2.22;;;;;;;;;;5032579;28;20510;-32
2023/01/30 04:46:01;;;;;;;7.25;2.00;;;;;;;;;;5032639;28;20507;-32
2023/01/30 04:48:28;;;;;;;10.55;2.10;;;;;;;;;;5032590;28;20028;-32
2023/01/30 04:50:56;;;;;;;7.20;1.95;;;;;;;;;;5032544;28;20395;-32
2023/01/30 04:53:23;;;;;;;8.80;1.92;;;;;;;;;;5032482;28;20034;-32
2023/01/30 04:55:51;;;;;;;10.80;2.20;;;;;;;;;;5032436;28;20071;-32
2023/01/30 04:58:18;;;;;;;8.25;2.10;;;;;;;;;;5014763;28;20033;-32
2023/01/30 05:00:45;;;;;;;5.70;1.80;;;;;;;;;;5032582;28;20120;-32
2023/01/30 05:03:12;;;;;;;7.53;1.95;;;;;;;;;;5032556;28;20033;-32
2023/01/30 05:05:39;;;;;;;6.20;1.92;;;;;;;;;;5032422;28;20061;-33
2023/01/30 05:08:07;;;;;;;8.32;2.15;;;;;;;;;;5032546;28;20036;-32
2023/01/30 05:10:34;;;;;;;5.82;1.75;;;;;;;;;;5032438;28;20018;-32
2023/01/30 05:13:04;;;;;;;5.57;2.00;;;;;;;;;;5032360;28;20021;-32
2023/01/30 05:15:32;;;;;;;6.50;2.10;;;;;;;;;;5032223;28;20100;-32
2023/01/30 05:18:00;;;;;;;6.25;1.92;;;;;;;;;;5032433;28;20120;-32
2023/01/30 05:20:26;;;;;;;5.32;1.75;;;;;;;;;;5032204;28;20037;-32
2023/01/30 05:22:53;;;;;;;7.40;1.85;;;;;;;;;;5032414;28;20075;-32
2023/01/30 05:25:20;;;;;;;6.32;1.85;;;;;;;;;;5032267;28;20560;-32
2023/01/30 05:27:47;;;;;;;7.32;1.88;;;;;;;;;;5034003;28;20028;-32
2023/01/30 05:30:15;;;;;;;4.95;1.83;;;;;;;;;;5036086;28;20029;-32
2023/01/30 05:32:42;;;;;;;4.60;2.00;;;;;;;;;;5036044;28;20083;-32
2023/01/30 05:35:09;;;;;;;5.07;1.83;;;;;;;;;;5035893;28;20037;-32
2023/01/30 05:37:36;;;;;;;5.18;1.80;;;;;;;;;;5035650;28;20538;-32
2023/01/30 05:40:04;;;;;;;4.05;1.73;;;;;;;;;;5035805;28;20099;-32
2023/01/30 05:42:31;;;;;;;5.53;1.65;;;;;;;;;;5036051;28;20030;-32
2023/01/30 05:44:58;;;;;;;5.13;1.83;;;;;;;;;;5035577;28;20026;-32
2023/01/30 05:47:25;;;;;;;5.78;1.67;;;;;;;;;;5035787;28;20029;-32
2023/01/30 05:49:52;;;;;;;6.30;1.70;;;;;;;;;;5035708;28;20026;-32
2023/01/30 05:52:19;;;;;;;5.13;1.67;;;;;;;;;;5035577;28;20060;-32
2023/01/30 05:54:46;;;;;;;5.40;1.65;;;;;;;;;;5035407;28;20467;-32
2023/01/30 05:57:13;;;;;;;5.32;1.70;;;;;;;;;;5035445;28;20032;-32
2023/01/30 05:59:40;;;;;;;6.35;1.95;;;;;;;;;;5035467;28;20480;-32
2023/01/30 06:02:07;;;;;;;5.40;1.52;;;;;;;;;;5028288;28;20029;-32
2023/01/30 06:04:34;;;;;;;7.50;1.60;;;;;;;;;;5035313;28;20447;-32
2023/01/30 06:07:01;;;;;;;5.22;1.73;;;;;;;;;;5035303;28;20029;-32
2023/01/30 06:09:28;;;;;;;7.85;1.50;;;;;;;;;;5035258;28;20026;-32
2023/01/30 06:11:55;;;;;;;3.08;1.60;;;;;;;;;;5035239;28;20030;-32
2023/01/30 06:14:22;;;;;;;3.65;1.42;;;;;;;;;;5035107;28;20380;-32
2023/01/30 06:16:49;;;;;;;5.32;1.80;;;;;;;;;;5035233;28;20488;-32
2023/01/30 06:19:16;;;;;;;4.93;1.50;;;;;;;;;;5035153;28;20060;-32
2023/01/30 06:21:43;;;;;;;5.05;1.80;;;;;;;;;;5035043;28;20030;-32
2023/01/30 06:24:09;;;;;;;4.63;1.80;;;;;;;;;;5034883;28;20025;-32
2023/01/30 06:26:36;;;;;;;4.93;1.67;;;;;;;;;;5034691;28;20064;-32
2023/01/30 06:29:03;;;;;;;2.78;1.55;;;;;;;;;;5034907;28;20027;-32
2023/01/30 06:31:30;;;;;;;2.05;1.40;;;;;;;;;;5034876;28;20021;-32
2023/01/30 06:33:57;;;;;;;4.10;1.50;;;;;;;;;;5034603;28;20025;-32
2023/01/30 06:36:24;;;;;;;6.50;1.40;;;;;;;;;;5034622;28;20026;-32
2023/01/30 06:38:51;;;;;;;4.78;1.73;;;;;;;;;;5034662;28;20710;-33
2023/01/30 06:41:18;;;;;;;2.80;1.33;;;;;;;;;;5177355;23;20453;-33
2023/01/30 06:43:45;;;;;;;7.13;1.67;;;;;;;;;;5015959;28;20029;-34
2023/01/30 06:46:12;;;;;;;2.72;1.55;;;;;;;;;;5015636;28;20018;-34
2023/01/30 06:48:39;;;;;;;5.05;1.75;;;;;;;;;;5014619;28;20105;-35
2023/01/30 06:51:06;;;;;;;5.63;1.75;;;;;;;;;;5014672;28;20554;-35
2023/01/30 06:53:33;;;;;;;4.40;1.67;;;;;;;;;;5014723;28;20038;-34
2023/01/30 06:56:01;;;;;;;3.03;1.38;;;;;;;;;;5014724;28;20512;-34
2023/01/30 06:58:28;;;;;;;4.22;1.58;;;;;;;;;;5014711;28;20033;-34
2023/01/30 07:00:55;;;;;;;4.22;1.60;;;;;;;;;;5014516;28;20018;-34
2023/01/30 07:03:22;;;;;;;5.72;1.65;;;;;;;;;;5014568;28;20092;-34
2023/01/30 07:05:49;;;;;;;4.45;1.52;;;;;;;;;;5014526;28;20546;-35
2023/01/30 07:08:16;;;;;;;5.13;1.77;;;;;;;;;;5014473;28;20025;-34
2023/01/30 07:10:43;;;;;;;3.38;1.40;;;;;;;;;;5014435;28;20484;-34
2023/01/30 07:13:11;;;;;;;5.22;1.50;;;;;;;;;;5014210;28;20021;-34
2023/01/30 07:15:38;;;;;;;3.53;1.20;;;;;;;;;;5014221;28;20116;-34
2023/01/30 07:18:05;;;;;;;3.22;1.52;;;;;;;;;;5014515;28;20436;-34
2023/01/30 07:20:32;;;;;;;3.05;1.50;;;;;;;;;;5014259;28;20030;-34
2023/01/30 07:22:59;;;;;;;4.72;1.48;;;;;;;;;;5014104;28;20038;-34
2023/01/30 07:25:26;;;;;;;3.72;1.60;;;;;;;;;;5014159;28;20072;-34
2023/01/30 07:27:54;;;;;;;4.80;1.60;;;;;;;;;;5014099;28;20074;-35
2023/01/30 07:30:21;;;;;;;4.88;1.88;;;;;;;;;;5013961;28;20088;-35
2023/01/30 07:32:53;;;;;;;5.10;1.60;;;;;;;;;;5013855;28;20026;-34
2023/01/30 07:35:20;;;;;;;3.58;1.55;;;;;;;;;;5013855;28;20061;-34
2023/01/30 07:37:48;;;;;;;5.70;1.67;;;;;;;;;;5013936;28;20106;-34
2023/01/30 07:40:15;;;;;;;4.15;1.48;;;;;;;;;;5013276;28;20034;-35
2023/01/30 07:42:42;;;;;;;3.55;1.70;;;;;;;;;;5013476;28;20092;-35
2023/01/30 07:45:09;;;;;;;3.75;1.42;;;;;;;;;;5013793;28;20550;-35
2023/01/30 07:47:36;;;;;;;2.20;1.35;;;;;;;;;;5013801;28;20110;-35
2023/01/30 07:50:03;;;;;;;3.10;1.45;;;;;;;;;;5013168;28;20171;-35
2023/01/30 07:52:31;;;;;;;3.72;1.40;;;;;;;;;;5013487;28;20026;-35
2023/01/30 07:54:58;;;;;;;5.10;1.30;;;;;;;;;;5013841;28;20124;-35
2023/01/30 07:57:25;;;;;;;4.68;1.60;;;;;;;;;;5013440;28;20033;-35
2023/01/30 07:59:52;;;;;;;3.08;1.40;;;;;;;;;;5013592;28;20029;-35
2023/01/30 08:02:19;;;;;;;3.38;1.60;;;;;;;;;;5013443;28;20104;-34
2023/01/30 08:04:46;;;;;;;2.95;1.20;;;;;;;;;;5013428;28;20049;-35
2023/01/30 08:07:13;;;;;;;2.95;1.33;;;;;;;;;;5013484;28;20033;-35
2023/01/30 08:09:40;;;;;;;2.55;1.50;;;;;;;;;;5013393;28;20036;-35
2023/01/30 08:12:07;;;;;;;3.22;1.40;;;;;;;;;;5013089;28;20072;-35
2023/01/30 08:14:33;;;;;;;1.85;1.17;;;;;;;;;;5013511;28;20030;-35
2023/01/30 08:17:00;;;;;;;5.72;1.40;;;;;;;;;;5013296;28;20496;-35
2023/01/30 08:19:27;;;;;;;4.15;1.48;;;;;;;;;;5013256;28;20021;-35
2023/01/30 08:21:54;;;;;;;3.90;1.58;;;;;;;;;;5013153;28;20045;-35
2023/01/30 08:24:21;;;;;;;3.42;1.30;;;;;;;;;;5013205;28;20361;-35
2023/01/30 08:26:48;;;;;;;2.97;1.15;;;;;;;;;;5013171;28;20476;-35
2023/01/30 08:29:15;;;;;;;2.50;1.23;;;;;;;;;;5013140;28;20468;-34
2023/01/30 08:31:42;;;;;;;2.40;1.40;;;;;;;;;;5012971;28;20549;-35
2023/01/30 08:34:09;;;;;;;3.35;1.33;;;;;;;;;;5013112;28;20022;-35
2023/01/30 08:36:36;;;;;;;4.32;1.30;;;;;;;;;;5013222;28;20121;-34
2023/01/30 08:39:03;;;;;;;6.53;1.30;;;;;;;;;;5012900;28;20029;-35
2023/01/30 08:41:30;;;;;;;2.53;1.10;;;;;;;;;;5012665;28;20125;-34
2023/01/30 08:43:57;;;;;;;3.85;1.20;;;;;;;;;;5012955;28;20546;-35
2023/01/30 08:46:24;;;;;;;3.85;1.40;;;;;;;;;;5012839;28;20387;-34
2023/01/30 08:48:51;;;;;;;4.43;1.48;;;;;;;;;;5012921;28;20030;-35
2023/01/30 08:51:18;;;;;;;4.90;1.40;;;;;;;;;;5012845;28;20072;-34
2023/01/30 08:53:45;;;;;;;4.22;1.40;;;;;;;;;;5012782;28;20041;-34
2023/01/30 08:56:11;;;;;;;2.70;1.05;;;;;;;;;;5012714;28;20106;-35
2023/01/30 08:58:38;;;;;;;4.45;1.48;;;;;;;;;;5012740;28;20030;-34
2023/01/30 09:01:08;;;;;;;3.15;1.50;;;;;;;;;;5013319;28;20084;-35
2023/01/30 09:03:35;;;;;;;4.03;1.45;;;;;;;;;;5016764;28;20116;-34
2023/01/30 09:06:02;;;;;;;4.22;1.55;;;;;;;;;;5016783;28;20088;-35
2023/01/30 09:08:29;;;;;;;4.50;1.48;;;;;;;;;;5016725;28;20018;-34
2023/01/30 09:11:00;;;;;;;2.85;1.38;;;;;;;;;;5016644;28;20065;-34
2023/01/30 09:13:28;;;;;;;4.25;1.35;;;;;;;;;;5016596;28;20057;-34
2023/01/30 09:15:55;;;;;;;2.63;1.20;;;;;;;;;;5016376;28;20034;-34
2023/01/30 09:18:22;;;;;;;2.70;1.17;;;;;;;;;;5016425;28;20033;-35
2023/01/30 09:20:49;;;;;;;3.20;1.55;;;;;;;;;;5016367;28;20388;-34
2023/01/30 09:23:16;;;;;;;6.93;1.42;;;;;;;;;;5016307;28;20034;-34
2023/01/30 09:25:46;;;;;;;4.07;1.27;;;;;;;;;;5016423;28;20029;-35
2023/01/30 09:28:13;;;;;;;4.07;1.73;;;;;;;;;;5016377;28;20025;-34
2023/01/30 09:30:40;;;;;;;5.05;1.42;;;;;;;;;;5016209;28;20117;-35
2023/01/30 09:33:07;;;;;;;3.08;1.17;;;;;;;;;;5016222;28;20582;-34
2023/01/30 09:35:34;;;;;;;4.10;1.20;;;;;;;;;;5016244;28;20081;-34
2023/01/30 09:38:01;;;;;;;4.15;1.33;;;;;;;;;;5016173;28;20033;-35
2023/01/30 09:40:31;;;;;;;2.83;1.33;;;;;;;;;;5016122;28;20041;-34
2023/01/30 09:43:16;;;;;;;5.85;1.27;;;;;;;;;;5015818;28;20124;-34
2023/01/30 09:45:43;;;;;;;4.80;1.40;;;;;;;;;;5016051;28;20095;-34
2023/01/30 09:48:26;;;;;;;6.05;1.60;;;;;;;;;;5015843;28;20096;-35
2023/01/30 09:50:52;;;;;;;;;;;;;;;;;;5016319;28;20049;-34
2023/01/30 09:53:35;;;;;;;4.78;1.50;;;;;;;;;;5015816;28;19910;-34
2023/01/30 09:56:02;;;;;;;4.80;1.38;;;;;;;;;;5015893;28;20058;-34
2023/01/30 09:58:42;;;;;;;5.32;1.25;;;;;;;;;;5015827;28;20539;-34
2023/01/30 10:01:15;;;;;;;4.80;1.33;;;;;;;;;;5015529;28;20443;-34
2023/01/30 10:03:50;;;;;;;2.45;1.05;;;;;;;;;;5015760;28;20049;-34
2023/01/30 10:06:17;;;;;;;7.72;1.67;;;;;;;;;;5015654;28;20029;-34
2023/01/30 10:08:44;;;;;;;4.97;1.45;;;;;;;;;;5015664;28;20072;-34
2023/01/30 10:11:30;;;;;;;5.45;1.55;;;;;;;;;;5015337;28;20029;-34
2023/01/30 10:14:06;;;;;;;4.28;1.52;;;;;;;;;;5014812;28;20032;-34
2023/01/30 10:16:36;;;;;;;2.45;1.10;;;;;;;;;;5015498;28;20080;-35
2023/01/30 10:19:12;;;;;;;4.78;1.50;;;;;;;;;;5015394;28;20076;-34
2023/01/30 10:21:46;;;;;;;5.60;1.23;;;;;;;;;;5015339;28;20030;-34
2023/01/30 10:24:13;;;;;;;3.63;1.27;;;;;;;;;;5015346;28;20034;-34
2023/01/30 10:26:41;;;;;;;4.60;1.35;;;;;;;;;;5015465;28;20583;-34
2023/01/30 10:29:17;;;;;;;5.38;1.55;;;;;;;;;;5015561;28;20026;-34
2023/01/30 10:31:50;;;;;;;3.92;1.60;;;;;;;;;;5015172;28;20028;-35
2023/01/30 10:34:37;;;;;;;6.57;1.58;;;;;;;;;;5015146;28;20443;-34
2023/01/30 10:37:10;;;;;;;9.60;1.85;;;;;;;;;;5014983;28;20034;-34
2023/01/30 10:39:42;;;;;;;6.38;1.42;;;;;;;;;;5015072;28;20096;-34
2023/01/30 10:42:13;;;;;;;5.15;1.40;;;;;;;;;;5014942;28;20034;-34
2023/01/30 10:44:43;;;;;;;4.73;1.30;;;;;;;;;;5014978;28;20034;-34
2023/01/30 10:47:16;;;;;;;3.72;1.60;;;;;;;;;;5014917;28;20491;-34
2023/01/30 10:49:43;;;;;;;7.68;2.30;;;;;;;;;;5014769;28;20068;-34
2023/01/30 10:52:30;;;;;;;10.05;1.50;;;;;;;;;;5014684;28;20037;-35
2023/01/30 10:54:57;;;;;;;5.30;1.38;;;;;;;;;;5014759;28;20109;-34
2023/01/30 10:57:33;;;;;;;6.60;1.70;;;;;;;;;;5014890;28;20527;-34
2023/01/30 11:00:09;;;;;;;5.05;1.48;;;;;;;;;;5014573;28;20076;-34
2023/01/30 11:02:43;;;;;;;8.80;1.75;;;;;;;;;;5014376;28;20044;-34
2023/01/30 11:05:10;;;;;;;5.50;1.50;;;;;;;;;;5014571;28;20037;-34
2023/01/30 11:07:37;;;;;;;7.68;1.52;;;;;;;;;;5014534;28;20388;-34
2023/01/30 11:10:13;;;;;;;7.13;1.80;;;;;;;;;;5014398;28;20030;-34
2023/01/30 11:12:40;;;;;;;8.63;1.50;;;;;;;;;;4996891;28;20571;-34
2023/01/30 11:15:07;;;;;;;5.30;1.50;;;;;;;;;;5014332;28;20449;-34
2023/01/30 11:17:36;;;;;;;5.43;1.60;;;;;;;;;;5014230;28;20037;-34
2023/01/30 11:20:11;;;;;;;4.30;1.20;;;;;;;;;;5014289;28;20495;-34
2023/01/30 11:22:44;;;;;;;5.30;1.73;;;;;;;;;;5013978;28;20542;-35
2023/01/30 11:25:15;;;;;;;9.43;1.60;;;;;;;;;;5013228;28;20018;-35
2023/01/30 11:27:43;;;;;;;7.82;1.52;;;;;;;;;;5013620;28;20042;-34
2023/01/30 11:30:13;;;;;;;6.50;1.60;;;;;;;;;;5014258;28;20120;-34
2023/01/30 11:32:42;;;;;;;3.83;1.38;;;;;;;;;;5013717;28;20037;-34
2023/01/30 11:35:09;;;;;;;6.00;1.52;;;;;;;;;;5013902;28;20040;-34
2023/01/30 11:37:37;;;;;;;4.85;1.33;;;;;;;;;;5013967;28;20133;-34
2023/01/30 11:40:14;;;;;;;4.68;1.70;;;;;;;;;;5013942;28;20057;-34
2023/01/30 11:42:44;;;;;;;9.13;1.98;;;;;;;;;;5013600;28;20050;-34
2023/01/30 11:45:11;;;;;;;7.38;1.67;;;;;;;;;;5013652;28;20447;-34
2023/01/30 11:47:40;;;;;;;4.28;1.40;;;;;;;;;;5013786;28;20018;-34
2023/01/30 11:50:14;;;;;;;7.65;1.77;;;;;;;;;;5013717;28;20568;-34
2023/01/30 11:52:42;;;;;;;7.50;1.77;;;;;;;;;;5013562;28;20061;-34
2023/01/30 11:55:16;;;;;;;7.97;1.70;;;;;;;;;;5013619;28;20037;-34
2023/01/30 11:57:44;;;;;;;4.57;1.33;;;;;;;;;;5013693;28;20018;-34
2023/01/30 12:00:19;;;;;;;5.43;1.98;;;;;;;;;;5013471;28;20044;-34
2023/01/30 12:02:47;;;;;;;6.20;1.45;;;;;;;;;;4995634;28;20140;-34
2023/01/30 12:05:20;;;;;;;5.35;1.20;;;;;;;;;;5013466;28;20030;-34
2023/01/30 12:07:47;;;;;;;9.52;1.55;;;;;;;;;;5013446;28;20097;-34
2023/01/30 12:10:26;;;;;;;9.30;2.00;;;;;;;;;;5013418;28;20030;-34
2023/01/30 12:12:55;;;;;;;6.68;1.63;;;;;;;;;;5013257;28;20029;-34
2023/01/30 12:15:26;;;;;;;9.30;1.60;;;;;;;;;;5013294;28;20065;-34
2023/01/30 12:17:56;;;;;;;7.47;1.65;;;;;;;;;;5013348;28;20029;-34
2023/01/30 12:20:42;;;;;;;10.27;1.65;;;;;;;;;;5013203;28;20026;-34
2023/01/30 12:23:09;;;;;;;11.23;1.90;;;;;;;;;;5013214;28;20108;-34
2023/01/30 12:25:52;;;;;;;13.80;2.20;;;;;;;;;;5013143;28;20478;-34
2023/01/30 12:28:24;;;;;;;10.75;2.10;;;;;;;;;;5013145;28;20129;-34
2023/01/30 12:30:57;;;;;;;12.57;2.10;;;;;;;;;;5013043;28;20054;-34
2023/01/30 12:33:28;;;;;;;9.40;2.10;;;;;;;;;;5013013;28;20038;-34
2023/01/30 12:35:58;;;;;;;11.87;1.80;;;;;;;;;;5012805;28;20116;-34
2023/01/30 12:38:41;;;;;;;9.85;2.13;;;;;;;;;;5013048;28;20269;-34
2023/01/30 12:41:24;;;;;;;9.60;2.05;;;;;;;;;;5012748;28;20033;-34
2023/01/30 12:43:59;;;;;;;11.88;2.28;;;;;;;;;;5012941;28;20079;-34
2023/01/30 12:46:44;;;;;;;12.75;2.42;;;;;;;;;;5012985;28;20496;-34
2023/01/30 12:49:29;;;;;;;10.48;2.30;;;;;;;;;;5012897;28;20109;-35
2023/01/30 12:52:05;;;;;;;12.85;2.38;;;;;;;;;;5012560;28;20038;-34
2023/01/30 12:54:39;;;;;;;14.98;2.38;;;;;;;;;;5012899;28;20091;-34
2023/01/30 12:57:09;;;;;;;11.10;2.00;;;;;;;;;;5012845;28;20030;-34
2023/01/30 12:59:43;;;;;;;13.00;2.50;;;;;;;;;;5012876;28;20026;-34
2023/01/30 13:02:10;;;;;;;20.05;2.63;;;;;;;;;;5012599;28;20492;-34
2023/01/30 13:04:55;;;;;;;15.68;2.75;;;;;;;;;;5012739;28;20120;-34
2023/01/30 13:07:31;;;;;;;17.50;3.00;;;;;;;;;;5012726;28;20117;-34
2023/01/30 13:10:11;;;;;;;12.00;2.70;;;;;;;;;;5012805;28;20482;-34
2023/01/30 13:12:38;;;;;;;12.85;2.70;;;;;;;;;;5012462;28;20041;-35
2023/01/30 13:15:15;;;;;;;14.05;2.47;;;;;;;;;;5012714;28;20117;-34
2023/01/30 13:17:51;;;;;;;13.68;2.90;;;;;;;;;;5012672;28;20026;-35
2023/01/30 13:20:18;;;;;;;17.02;2.67;;;;;;;;;;5012372;28;20092;-34
2023/01/30 13:22:50;;;;;;;14.48;3.10;;;;;;;;;;5012586;28;20044;-35
2023/01/30 13:25:27;;;;;;;15.53;3.10;;;;;;;;;;5012579;28;20026;-35
2023/01/30 13:27:57;;;;;;;15.43;2.45;;;;;;;;;;5012526;28;20022;-34
2023/01/30 13:30:26;;;;;;;22.67;3.13;;;;;;;;;;5012293;28;20117;-34
2023/01/30 13:33:13;;;;;;;14.60;2.97;;;;;;;;;;5012262;28;20084;-34
2023/01/30 13:35:49;;;;;;;15.35;3.00;;;;;;;;;;5012442;28;20053;-35
2023/01/30 13:38:19;;;;;;;18.58;3.47;;;;;;;;;;5012755;28;20387;-34
2023/01/30 13:40:47;;;;;;;19.13;3.15;;;;;;;;;;5012363;28;20069;-34
2023/01/30 13:43:24;;;;;;;19.60;3.38;;;;;;;;;;5012148;28;20477;-34
2023/01/30 13:45:52;;;;;;;19.63;2.97;;;;;;;;;;5012261;28;20022;-34
2023/01/30 13:48:31;;;;;;;11.57;2.92;;;;;;;;;;5013294;28;20024;-34
2023/01/30 13:51:12;;;;;;;22.42;3.30;;;;;;;;;;4998168;28;20389;-34
2023/01/30 13:53:54;;;;;;;28.83;3.20;;;;;;;;;;5015883;28;20044;-35
2023/01/30 13:56:44;;;;;;;17.08;2.83;;;;;;;;;;5015905;28;20060;-34
2023/01/30 13:59:11;;;;;;;16.92;2.95;;;;;;;;;;5008318;28;20031;-34
2023/01/30 14:01:56;;;;;;;17.95;3.28;;;;;;;;;;5015628;28;20531;-34
2023/01/30 14:04:38;;;;;;;21.60;3.65;;;;;;;;;;5015742;28;20022;-34
2023/01/30 14:07:08;;;;;;;22.42;3.47;;;;;;;;;;5015731;28;20065;-34
2023/01/30 14:09:36;;;;;;;16.85;3.58;;;;;;;;;;4997961;28;20034;-34
2023/01/30 14:12:05;;;;;;;21.60;3.67;;;;;;;;;;5015467;28;20104;-35
2023/01/30 14:14:38;;;;;;;15.45;3.30;;;;;;;;;;5015458;28;20038;-34
2023/01/30 14:17:17;;;;;;;21.15;3.40;;;;;;;;;;5015413;28;20029;-35
2023/01/30 14:20:01;;;;;;;20.45;3.55;;;;;;;;;;5015430;28;20065;-34
2023/01/30 14:22:31;;;;;;;22.00;3.67;;;;;;;;;;5015339;28;20041;-34
2023/01/30 14:25:16;;;;;;;23.08;3.53;;;;;;;;;;5015410;28;20602;-34
2023/01/30 14:27:43;;;;;;;15.52;3.35;;;;;;;;;;5015348;28;20109;-34
2023/01/30 14:30:28;;;;;;;27.23;4.32;;;;;;;;;;5015430;28;20025;-34
2023/01/30 14:32:55;;;;;;;22.73;3.67;;;;;;;;;;5015180;28;20045;-34
2023/01/30 14:35:23;;;;;;;26.13;4.53;;;;;;;;;;5015188;28;20057;-34
2023/01/30 14:37:52;;;;;;;28.38;4.20;;;;;;;;;;5015119;28;20037;-34
2023/01/30 14:40:21;;;;;;;26.25;4.18;;;;;;;;;;5014901;28;20029;-34
2023/01/30 14:43:06;;;;;;;23.20;4.00;;;;;;;;;;5014864;28;20050;-34
2023/01/30 14:45:59;;;;;;;24.77;4.43;;;;;;;;;;5015002;28;20022;-35
2023/01/30 14:48:31;;;;;;;23.38;4.22;;;;;;;;;;5012268;28;20061;-34
2023/01/30 14:51:13;;;;;;;20.17;4.20;;;;;;;;;;5014851;28;20046;-34
2023/01/30 14:53:55;;;;;;;21.15;4.72;;;;;;;;;;5014765;28;20080;-34
2023/01/30 14:56:34;;;;;;;30.17;4.38;;;;;;;;;;5014772;28;20037;-34
2023/01/30 14:59:03;;;;;;;31.63;4.45;;;;;;;;;;5014609;28;20448;-35
2023/01/30 15:01:50;;;;;;;31.90;4.95;;;;;;;;;;5014551;28;20022;-34
2023/01/30 15:04:18;;;;;;;25.23;4.95;;;;;;;;;;4984377;28;20053;-34